createdAt,value
2023-03-07T00:00:17.786Z,95.67
2023-03-07T00:03:05.720Z,94.94
2023-03-07T00:05:33.387Z,95.80
2023-03-07T00:08:00.603Z,95.28
2023-03-07T00:10:28.055Z,95.21
2023-03-07T00:12:55.172Z,95.09
2023-03-07T00:15:22.874Z,94.58
2023-03-07T00:17:50.506Z,94.65
2023-03-07T00:20:17.896Z,92.95
2023-03-07T00:22:46.938Z,92.67
2023-03-07T00:25:17.697Z,91.07
2023-03-07T00:27:46.548Z,90.86
2023-03-07T00:30:13.758Z,90.94
2023-03-07T00:32:41.420Z,90.39
2023-03-07T00:35:08.800Z,91.50
2023-03-07T00:37:35.986Z,91.79
2023-03-07T00:40:04.045Z,91.63
2023-03-07T00:42:31.401Z,92.16
2023-03-07T00:44:58.227Z,92.24
2023-03-07T00:47:25.748Z,92.02
2023-03-07T00:49:53.561Z,91.94
2023-03-07T00:52:21.122Z,92.07
2023-03-07T00:54:48.275Z,92.16
2023-03-07T00:57:15.760Z,91.86
2023-03-07T00:59:42.858Z,91.21
2023-03-07T01:02:10.634Z,91.24
2023-03-07T01:04:37.869Z,91.25
2023-03-07T01:07:05.270Z,90.52
2023-03-07T01:09:32.829Z,89.68
2023-03-07T01:12:00.464Z,89.14
2023-03-07T01:14:27.553Z,89.74
2023-03-07T01:16:55.120Z,90.45
2023-03-07T01:19:22.974Z,90.89
2023-03-07T01:21:51.470Z,91.03
2023-03-07T01:24:18.499Z,90.79
2023-03-07T01:26:46.209Z,90.69
2023-03-07T01:29:13.421Z,91.05
2023-03-07T01:31:41.108Z,89.94
2023-03-07T01:34:08.625Z,88.86
2023-03-07T01:36:37.956Z,89.30
2023-03-07T01:39:14.302Z,89.27
2023-03-07T01:41:49.585Z,89.60
2023-03-07T01:44:18.406Z,90.03
2023-03-07T01:46:49.081Z,90.25
2023-03-07T01:49:22.203Z,91.33
2023-03-07T01:52:08.381Z,91.38
2023-03-07T01:54:41.564Z,91.58
2023-03-07T01:57:09.568Z,92.20
2023-03-07T01:59:43.378Z,91.90
2023-03-07T02:02:14.322Z,91.41
2023-03-07T02:04:47.319Z,91.98
2023-03-07T02:07:16.492Z,92.41
2023-03-07T02:09:48.238Z,93.14
2023-03-07T02:12:15.831Z,93.27
2023-03-07T02:14:45.765Z,93.83
2023-03-07T02:17:13.384Z,93.83
2023-03-07T02:20:22.269Z,93.73
2023-03-07T02:22:50.411Z,94.05
2023-03-07T02:25:30.005Z,93.92
2023-03-07T02:27:59.166Z,94.83
2023-03-07T02:30:26.743Z,94.74
2023-03-07T02:32:55.007Z,94.83
2023-03-07T02:35:25.581Z,95.17
2023-03-07T02:38:03.260Z,95.28
2023-03-07T02:40:32.752Z,95.25
2023-03-07T02:43:09.739Z,95.76
2023-03-07T02:45:39.924Z,95.97
2023-03-07T02:48:07.134Z,96.42
2023-03-07T02:50:35.445Z,96.02
2023-03-07T02:53:02.703Z,96.46
2023-03-07T02:55:30.348Z,96.64
2023-03-07T02:58:02.463Z,96.61
2023-03-07T03:00:30.226Z,96.72
2023-03-07T03:02:57.389Z,96.91
2023-03-07T03:05:24.438Z,97.44
2023-03-07T03:07:53.154Z,97.52
2023-03-07T03:10:20.097Z,97.92
2023-03-07T03:12:48.073Z,97.91
2023-03-07T03:15:16.242Z,98.03
2023-03-07T03:17:44.423Z,98.62
2023-03-07T03:20:12.863Z,98.66
2023-03-07T03:22:41.394Z,98.80
2023-03-07T03:25:11.917Z,98.87
2023-03-07T03:27:41.985Z,99.43
2023-03-07T03:30:12.785Z,99.58
2023-03-07T03:32:41.476Z,99.96
2023-03-07T03:35:11.290Z,100.00
2023-03-07T03:37:39.533Z,100.00
2023-03-07T03:40:14.363Z,100.00
2023-03-07T03:42:44.561Z,100.00
2023-03-07T03:45:17.505Z,100.00
2023-03-07T03:47:45.239Z,100.00
2023-03-07T03:50:12.585Z,100.00
2023-03-07T03:52:41.159Z,100.00
2023-03-07T03:55:09.383Z,100.00
2023-03-07T03:57:36.841Z,100.00
2023-03-07T04:00:05.815Z,100.00
2023-03-07T04:02:39.797Z,100.00
2023-03-07T04:05:11.566Z,100.00
2023-03-07T04:07:39.313Z,100.00
2023-03-07T04:10:06.747Z,100.00
2023-03-07T04:12:34.219Z,100.00
2023-03-07T04:15:01.438Z,100.00
2023-03-07T04:17:28.699Z,100.00
2023-03-07T04:19:55.878Z,100.00
2023-03-07T04:22:23.830Z,100.00
2023-03-07T04:24:50.676Z,100.00
2023-03-07T04:27:18.336Z,100.00
2023-03-07T04:29:45.552Z,100.00
2023-03-07T04:32:17.944Z,100.00
2023-03-07T04:34:45.866Z,100.00
2023-03-07T04:37:13.289Z,100.00
2023-03-07T04:39:40.424Z,100.00
2023-03-07T04:42:10.073Z,100.00
2023-03-07T04:44:37.659Z,100.00
2023-03-07T04:47:05.096Z,100.00
2023-03-07T04:49:34.744Z,100.00
2023-03-07T04:52:04.614Z,100.00
2023-03-07T04:54:32.389Z,100.00
2023-03-07T04:57:01.665Z,100.00
2023-03-07T04:59:28.845Z,100.00
2023-03-07T05:01:56.479Z,100.00
2023-03-07T05:04:23.741Z,100.00
2023-03-07T05:06:51.659Z,100.00
2023-03-07T05:09:19.010Z,100.00
2023-03-07T05:11:47.117Z,100.00
2023-03-07T05:14:14.062Z,100.00
2023-03-07T05:16:42.440Z,100.00
2023-03-07T05:19:10.346Z,100.00
2023-03-07T05:21:39.950Z,100.00
2023-03-07T05:24:07.922Z,100.00
2023-03-07T05:26:36.428Z,100.00
2023-03-07T05:29:04.182Z,100.00
2023-03-07T05:31:31.434Z,100.00
2023-03-07T05:33:59.035Z,100.00
2023-03-07T05:36:26.294Z,100.00
2023-03-07T05:38:56.318Z,100.00
2023-03-07T05:41:24.611Z,100.00
2023-03-07T05:43:51.505Z,100.00
2023-03-07T05:46:18.931Z,100.00
2023-03-07T05:48:46.052Z,100.00
2023-03-07T05:51:13.611Z,100.00
2023-03-07T05:53:41.474Z,100.00
2023-03-07T05:56:09.245Z,100.00
2023-03-07T05:58:37.971Z,100.00
2023-03-07T06:01:05.878Z,100.00
2023-03-07T06:03:33.626Z,100.00
2023-03-07T06:06:01.026Z,100.00
2023-03-07T06:08:28.341Z,100.00
2023-03-07T06:10:55.514Z,100.00
2023-03-07T06:13:25.275Z,100.00
2023-03-07T06:15:54.140Z,100.00
2023-03-07T06:18:24.182Z,100.00
2023-03-07T06:20:59.747Z,100.00
2023-03-07T06:23:31.699Z,100.00
2023-03-07T06:26:00.908Z,100.00
2023-03-07T06:28:28.547Z,100.00
2023-03-07T06:30:56.117Z,100.00
2023-03-07T06:33:23.819Z,100.00
2023-03-07T06:35:54.371Z,100.00
2023-03-07T06:38:21.399Z,100.00
2023-03-07T06:40:56.546Z,100.00
2023-03-07T06:43:24.020Z,100.00
2023-03-07T06:45:51.454Z,100.00
2023-03-07T06:48:19.090Z,98.96
2023-03-07T06:50:46.989Z,100.00
2023-03-07T06:53:14.253Z,99.65
2023-03-07T06:55:41.594Z,99.64
2023-03-07T06:58:11.692Z,100.00
2023-03-07T07:00:39.134Z,100.00
2023-03-07T07:03:06.473Z,99.64
2023-03-07T07:05:34.073Z,99.44
2023-03-07T07:08:01.067Z,99.50
2023-03-07T07:10:29.805Z,99.07
2023-03-07T07:12:58.062Z,99.53
2023-03-07T07:15:26.870Z,99.28
2023-03-07T07:17:55.297Z,97.86
2023-03-07T07:20:24.269Z,97.55
2023-03-07T07:22:51.386Z,97.32
2023-03-07T07:25:20.088Z,96.84
2023-03-07T07:27:47.744Z,97.02
2023-03-07T07:30:15.230Z,94.16
2023-03-07T07:32:42.425Z,94.99
2023-03-07T07:35:10.226Z,93.54
2023-03-07T07:37:37.598Z,93.24
2023-03-07T07:40:05.440Z,92.83
2023-03-07T07:42:32.521Z,93.32
2023-03-07T07:45:11.569Z,93.04
2023-03-07T07:47:39.030Z,92.49
2023-03-07T07:50:06.774Z,92.94
2023-03-07T07:52:35.282Z,92.01
2023-03-07T07:55:02.609Z,90.39
2023-03-07T07:57:29.877Z,91.06
2023-03-07T07:59:58.959Z,91.58
2023-03-07T08:02:25.980Z,91.40
2023-03-07T08:04:53.305Z,91.23
2023-03-07T08:07:20.698Z,90.80
2023-03-07T08:09:48.053Z,90.88
2023-03-07T08:12:15.396Z,91.04
2023-03-07T08:14:42.786Z,91.12
2023-03-07T08:17:10.100Z,90.01
2023-03-07T08:19:37.306Z,89.18
2023-03-07T08:22:04.507Z,89.63
2023-03-07T08:24:40.696Z,88.95
2023-03-07T08:27:08.759Z,88.80
2023-03-07T08:29:35.956Z,88.20
2023-03-07T08:32:03.864Z,85.48
2023-03-07T08:34:33.697Z,84.73
2023-03-07T08:37:00.744Z,85.14
2023-03-07T08:39:27.992Z,84.63
2023-03-07T08:41:56.905Z,83.89
2023-03-07T08:44:24.342Z,81.74
2023-03-07T08:46:51.585Z,81.53
2023-03-07T08:49:19.142Z,82.33
2023-03-07T08:51:50.464Z,83.22
2023-03-07T08:54:18.293Z,82.58
2023-03-07T08:56:45.270Z,82.46
2023-03-07T08:59:12.809Z,84.15
2023-03-07T09:01:41.153Z,84.29
2023-03-07T09:04:09.656Z,84.15
2023-03-07T09:06:36.848Z,84.05
2023-03-07T09:09:06.008Z,84.18
2023-03-07T09:11:33.267Z,83.69
2023-03-07T09:14:00.708Z,83.82
2023-03-07T09:16:28.133Z,84.46
2023-03-07T09:18:55.320Z,83.06
2023-03-07T09:21:22.398Z,82.78
2023-03-07T09:23:49.743Z,81.18
2023-03-07T09:26:16.876Z,82.20
2023-03-07T09:28:44.362Z,82.43
2023-03-07T09:31:13.960Z,83.06
2023-03-07T09:33:41.801Z,83.34
2023-03-07T09:36:10.956Z,83.24
2023-03-07T09:38:39.006Z,83.14
2023-03-07T09:41:27.675Z,82.48
2023-03-07T09:44:24.082Z,81.10
2023-03-07T09:47:34.764Z,80.99
2023-03-07T09:50:10.066Z,81.50
2023-03-07T09:52:39.700Z,81.98
2023-03-07T09:55:19.274Z,81.28
2023-03-07T09:58:05.184Z,81.70
2023-03-07T10:00:38.380Z,81.86
2023-03-07T10:03:45.532Z,81.33
2023-03-07T10:06:30.672Z,82.45
2023-03-07T10:08:59.853Z,81.81
2023-03-07T10:11:46.346Z,81.17
2023-03-07T10:14:41.482Z,81.69
2023-03-07T10:17:47.135Z,81.25
2023-03-07T10:20:35.761Z,80.84
2023-03-07T10:23:26.530Z,80.95
2023-03-07T10:26:02.225Z,81.99
2023-03-07T10:28:32.812Z,81.56
2023-03-07T10:31:13.893Z,81.68
2023-03-07T10:33:45.187Z,82.30
2023-03-07T10:36:35.571Z,82.26
2023-03-07T10:39:24.795Z,82.83
2023-03-07T10:41:52.867Z,83.59
2023-03-07T10:44:21.956Z,83.68
2023-03-07T10:46:56.651Z,83.76
2023-03-07T10:49:28.192Z,84.42
2023-03-07T10:52:12.984Z,84.04
2023-03-07T10:54:40.632Z,83.60
2023-03-07T10:57:12.769Z,82.50
2023-03-07T10:59:43.759Z,81.11
2023-03-07T11:02:28.760Z,81.21
2023-03-07T11:04:56.907Z,82.87
2023-03-07T11:07:28.726Z,81.56
2023-03-07T11:09:58.339Z,81.82
2023-03-07T11:12:29.245Z,82.29
2023-03-07T11:15:08.860Z,80.34
2023-03-07T11:17:47.833Z,81.56
2023-03-07T11:20:20.402Z,79.86
2023-03-07T11:22:47.990Z,78.91
2023-03-07T11:25:23.005Z,79.32
2023-03-07T11:27:52.669Z,79.73
2023-03-07T11:30:20.105Z,80.67
2023-03-07T11:32:53.849Z,80.89
2023-03-07T11:35:32.675Z,80.87
2023-03-07T11:38:19.513Z,79.93
2023-03-07T11:40:53.921Z,80.76
2023-03-07T11:43:27.634Z,80.10
2023-03-07T11:46:16.254Z,80.46
2023-03-07T11:48:55.723Z,80.40
2023-03-07T11:51:32.263Z,79.45
2023-03-07T11:54:28.805Z,79.51
2023-03-07T11:57:06.289Z,79.01
2023-03-07T12:00:00.838Z,78.77
2023-03-07T12:03:03.866Z,77.26
2023-03-07T12:05:57.880Z,77.15
2023-03-07T12:08:40.262Z,77.31
2023-03-07T12:11:24.839Z,76.63
2023-03-07T12:14:26.177Z,76.01
2023-03-07T12:17:18.281Z,75.27
2023-03-07T12:19:57.666Z,75.33
2023-03-07T12:22:56.902Z,75.13
2023-03-07T12:25:40.157Z,74.73
2023-03-07T12:28:28.172Z,75.63
2023-03-07T12:31:17.770Z,75.37
2023-03-07T12:34:06.413Z,75.18
2023-03-07T12:36:44.709Z,74.66
2023-03-07T12:39:30.100Z,74.29
2023-03-07T12:41:57.620Z,74.11
2023-03-07T12:44:41.106Z,73.47
2023-03-07T12:47:35.698Z,71.99
2023-03-07T12:50:15.380Z,72.29
2023-03-07T12:52:56.902Z,71.48
2023-03-07T12:55:44.044Z,72.25
2023-03-07T12:58:49.310Z,72.18
2023-03-07T13:01:23.560Z,72.38
2023-03-07T13:03:53.871Z,72.63
2023-03-07T13:06:22.804Z,71.49
2023-03-07T13:08:53.420Z,71.65
2023-03-07T13:11:26.411Z,70.36
2023-03-07T13:13:57.182Z,70.86
2023-03-07T13:16:38.614Z,71.18
2023-03-07T13:19:30.962Z,70.76
2023-03-07T13:21:58.510Z,70.65
2023-03-07T13:24:38.897Z,70.81
2023-03-07T13:27:21.213Z,71.55
2023-03-07T13:30:10.689Z,72.04
2023-03-07T13:32:54.243Z,71.87
2023-03-07T13:35:24.621Z,71.85
2023-03-07T13:37:54.604Z,71.99
2023-03-07T13:40:27.588Z,72.76
2023-03-07T13:42:55.348Z,72.43
2023-03-07T13:45:54.477Z,72.80
2023-03-07T13:48:28.241Z,72.43
2023-03-07T13:50:56.082Z,72.94
2023-03-07T13:53:34.369Z,73.13
2023-03-07T13:56:17.322Z,73.29
2023-03-07T13:58:52.483Z,73.58
2023-03-07T14:01:23.404Z,73.74
2023-03-07T14:04:05.009Z,72.86
2023-03-07T14:06:39.311Z,72.67
2023-03-07T14:09:11.855Z,73.13
2023-03-07T14:12:16.987Z,72.95
2023-03-07T14:15:02.878Z,73.23
2023-03-07T14:17:42.679Z,73.67
2023-03-07T14:20:32.303Z,74.04
2023-03-07T14:23:50.237Z,73.74
2023-03-07T14:26:21.649Z,73.59
2023-03-07T14:29:01.633Z,73.57
2023-03-07T14:31:39.002Z,73.25
2023-03-07T14:34:21.609Z,72.55
2023-03-07T14:37:10.260Z,71.86
2023-03-07T14:39:56.986Z,71.97
2023-03-07T14:42:48.603Z,72.31
2023-03-07T14:45:35.901Z,72.12
2023-03-07T14:48:16.612Z,72.35
2023-03-07T14:50:45.014Z,72.46
2023-03-07T14:53:20.614Z,72.11
2023-03-07T14:55:51.455Z,72.21
2023-03-07T14:58:35.061Z,72.17
2023-03-07T15:01:12.170Z,72.24
2023-03-07T15:03:49.980Z,72.28
2023-03-07T15:06:21.861Z,72.35
2023-03-07T15:08:49.696Z,71.97
2023-03-07T15:11:35.557Z,72.00
2023-03-07T15:14:08.062Z,71.68
2023-03-07T15:16:55.746Z,72.04
2023-03-07T15:19:38.525Z,71.97
2023-03-07T15:22:19.249Z,71.76
2023-03-07T15:24:49.783Z,72.27
2023-03-07T15:27:22.712Z,72.15
2023-03-07T15:29:50.455Z,71.68
2023-03-07T15:32:37.773Z,71.43
2023-03-07T15:35:08.357Z,71.43
2023-03-07T15:37:51.402Z,71.38
2023-03-07T15:40:22.430Z,71.49
2023-03-07T15:43:11.443Z,71.29
2023-03-07T15:45:40.868Z,71.18
2023-03-07T15:48:23.288Z,71.17
2023-03-07T15:50:56.712Z,70.77
2023-03-07T15:53:33.750Z,70.95
2023-03-07T15:56:05.151Z,70.87
2023-03-07T15:58:34.699Z,70.64
2023-03-07T16:01:05.579Z,70.68
2023-03-07T16:03:33.805Z,70.66
2023-03-07T16:06:02.406Z,70.78
2023-03-07T16:08:30.014Z,70.97
2023-03-07T16:11:03.745Z,71.23
2023-03-07T16:13:41.681Z,71.12
2023-03-07T16:16:13.149Z,71.46
2023-03-07T16:18:42.068Z,71.38
2023-03-07T16:21:14.618Z,71.27
2023-03-07T16:23:43.261Z,71.69
2023-03-07T16:26:29.292Z,71.45
2023-03-07T16:29:00.094Z,71.88
2023-03-07T16:31:27.600Z,72.01
2023-03-07T16:33:56.029Z,72.14
2023-03-07T16:36:23.122Z,72.07
2023-03-07T16:38:50.975Z,72.13
2023-03-07T16:41:20.764Z,72.17
2023-03-07T16:43:57.360Z,72.48
2023-03-07T16:46:25.873Z,72.56
2023-03-07T16:48:53.970Z,72.18
2023-03-07T16:51:23.380Z,72.13
2023-03-07T16:53:52.150Z,72.12
2023-03-07T16:56:25.167Z,72.13
2023-03-07T16:58:54.091Z,72.04
2023-03-07T17:01:21.122Z,72.18
2023-03-07T17:03:48.700Z,72.22
2023-03-07T17:06:16.834Z,72.69
2023-03-07T17:08:45.275Z,72.88
2023-03-07T17:11:25.131Z,72.76
2023-03-07T17:13:55.636Z,73.19
2023-03-07T17:16:24.878Z,72.97
2023-03-07T17:18:52.035Z,72.70
2023-03-07T17:21:21.782Z,72.78
2023-03-07T17:23:49.913Z,72.66
2023-03-07T17:26:35.528Z,72.81
2023-03-07T17:29:07.510Z,72.72
2023-03-07T17:31:34.966Z,72.83
2023-03-07T17:34:02.123Z,73.02
2023-03-07T17:36:31.588Z,72.91
2023-03-07T17:38:59.258Z,72.71
2023-03-07T17:41:26.102Z,72.77
2023-03-07T17:43:53.782Z,73.03
2023-03-07T17:46:20.799Z,72.74
2023-03-07T17:48:48.354Z,72.94
2023-03-07T17:51:15.407Z,72.62
2023-03-07T17:53:42.849Z,73.00
2023-03-07T17:56:13.190Z,72.55
2023-03-07T17:58:40.968Z,72.73
2023-03-07T18:01:08.863Z,72.60
2023-03-07T18:03:37.166Z,73.05
2023-03-07T18:06:05.655Z,73.25
2023-03-07T18:08:33.570Z,73.10
2023-03-07T18:11:04.222Z,73.33
2023-03-07T18:13:32.397Z,73.13
2023-03-07T18:15:59.845Z,73.56
2023-03-07T18:18:29.928Z,73.61
2023-03-07T18:21:01.958Z,73.54
2023-03-07T18:23:29.163Z,73.66
2023-03-07T18:25:57.807Z,73.86
2023-03-07T18:28:26.430Z,73.78
2023-03-07T18:31:17.815Z,74.00
2023-03-07T18:33:47.812Z,73.96
2023-03-07T18:36:15.683Z,73.86
2023-03-07T18:38:43.323Z,74.23
2023-03-07T18:41:13.888Z,74.65
2023-03-07T18:43:42.157Z,74.39
2023-03-07T18:46:15.899Z,75.21
2023-03-07T18:48:45.163Z,75.21
2023-03-07T18:51:15.696Z,75.13
2023-03-07T18:53:43.480Z,74.68
2023-03-07T18:56:17.493Z,74.89
2023-03-07T18:58:45.492Z,75.15
2023-03-07T19:01:21.197Z,75.07
2023-03-07T19:03:51.118Z,74.92
2023-03-07T19:06:21.248Z,74.01
2023-03-07T19:08:48.830Z,74.58
2023-03-07T19:11:16.259Z,73.85
2023-03-07T19:13:44.364Z,73.54
2023-03-07T19:16:20.162Z,74.42
2023-03-07T19:18:47.651Z,74.63
2023-03-07T19:21:18.125Z,74.89
2023-03-07T19:23:46.253Z,74.70
2023-03-07T19:26:16.756Z,75.44
2023-03-07T19:28:46.679Z,75.78
2023-03-07T19:31:27.943Z,76.26
2023-03-07T19:33:55.885Z,76.76
2023-03-07T19:36:27.179Z,76.73
2023-03-07T19:38:58.972Z,77.06
2023-03-07T19:41:29.101Z,77.82
2023-03-07T19:43:58.317Z,77.92
2023-03-07T19:46:25.336Z,78.01
2023-03-07T19:48:53.599Z,78.68
2023-03-07T19:51:23.100Z,79.08
2023-03-07T19:53:51.093Z,79.04
2023-03-07T19:56:19.696Z,79.60
2023-03-07T19:58:47.189Z,79.26
2023-03-07T20:01:17.845Z,79.92
2023-03-07T20:03:46.122Z,80.02
2023-03-07T20:06:20.031Z,80.43
2023-03-07T20:08:49.295Z,80.47
2023-03-07T20:11:24.381Z,81.00
2023-03-07T20:13:54.630Z,80.34
2023-03-07T20:16:22.117Z,80.96
2023-03-07T20:18:52.102Z,80.75
2023-03-07T20:21:20.539Z,80.21
2023-03-07T20:23:48.479Z,79.95
2023-03-07T20:26:22.608Z,79.81
2023-03-07T20:28:52.298Z,79.21
2023-03-07T20:31:22.066Z,79.74
2023-03-07T20:33:50.199Z,79.50
2023-03-07T20:36:28.987Z,79.75
2023-03-07T20:38:59.016Z,80.44
2023-03-07T20:41:31.834Z,80.73
2023-03-07T20:44:05.323Z,81.32
2023-03-07T20:46:33.817Z,82.02
2023-03-07T20:49:02.129Z,82.41
2023-03-07T20:51:35.510Z,83.02
2023-03-07T20:54:08.764Z,82.87
2023-03-07T20:56:38.066Z,83.01
2023-03-07T20:59:07.149Z,83.38
2023-03-07T21:01:35.280Z,84.38
2023-03-07T21:04:06.449Z,84.54
2023-03-07T21:06:35.229Z,84.73
2023-03-07T21:09:06.476Z,85.13
2023-03-07T21:11:35.814Z,85.23
2023-03-07T21:14:04.137Z,85.92
2023-03-07T21:16:31.892Z,85.67
2023-03-07T21:19:01.694Z,85.84
2023-03-07T21:21:33.132Z,86.41
2023-03-07T21:24:00.639Z,86.38
2023-03-07T21:26:30.045Z,86.77
2023-03-07T21:28:58.660Z,86.12
2023-03-07T21:31:31.651Z,86.19
2023-03-07T21:34:02.126Z,87.11
2023-03-07T21:36:31.475Z,87.21
2023-03-07T21:38:59.129Z,87.51
2023-03-07T21:41:27.218Z,87.21
2023-03-07T21:43:55.660Z,87.05
2023-03-07T21:46:24.047Z,86.99
2023-03-07T21:48:51.610Z,87.73
2023-03-07T21:51:19.443Z,87.44
2023-03-07T21:53:46.750Z,87.38
2023-03-07T21:56:17.172Z,87.90
2023-03-07T21:58:48.379Z,87.71
2023-03-07T22:01:21.785Z,87.50
2023-03-07T22:03:52.236Z,87.83
2023-03-07T22:06:19.776Z,88.01
2023-03-07T22:08:47.058Z,88.06
2023-03-07T22:11:14.259Z,88.09
2023-03-07T22:13:42.107Z,88.18
2023-03-07T22:16:14.513Z,88.37
2023-03-07T22:18:41.988Z,88.36
2023-03-07T22:21:14.376Z,89.54
2023-03-07T22:23:42.196Z,90.21
2023-03-07T22:26:11.476Z,91.19
2023-03-07T22:28:40.792Z,92.29
2023-03-07T22:31:11.318Z,93.69
2023-03-07T22:33:39.557Z,94.85
2023-03-07T22:36:07.893Z,95.88
2023-03-07T22:38:35.577Z,96.38
2023-03-07T22:41:04.924Z,96.88
2023-03-07T22:43:34.187Z,98.45
2023-03-07T22:46:01.832Z,99.29
2023-03-07T22:48:29.420Z,99.96
2023-03-07T22:50:56.649Z,100.00
2023-03-07T22:53:26.753Z,99.93
2023-03-07T22:55:54.831Z,99.75
2023-03-07T22:58:22.226Z,99.71
2023-03-07T23:00:49.571Z,100.00
2023-03-07T23:03:16.728Z,100.00
2023-03-07T23:05:46.820Z,100.00
2023-03-07T23:08:14.031Z,99.90
2023-03-07T23:10:41.548Z,100.00
2023-03-07T23:13:08.713Z,99.91
2023-03-07T23:15:40.307Z,100.00
2023-03-07T23:18:08.462Z,100.00
2023-03-07T23:20:37.570Z,100.00
2023-03-07T23:23:05.202Z,100.00
2023-03-07T23:25:33.285Z,100.00
2023-03-07T23:28:00.708Z,100.00
2023-03-07T23:30:27.649Z,100.00
2023-03-07T23:32:55.769Z,100.00
2023-03-07T23:35:23.823Z,100.00
2023-03-07T23:37:51.290Z,100.00
2023-03-07T23:40:18.520Z,100.00
2023-03-07T23:42:45.693Z,100.00
2023-03-07T23:45:12.993Z,100.00
2023-03-07T23:47:40.633Z,100.00
2023-03-07T23:50:08.748Z,100.00
2023-03-07T23:52:36.592Z,100.00
2023-03-07T23:55:03.991Z,100.00
2023-03-07T23:57:31.374Z,100.00
2023-03-07T23:59:58.209Z,100.00
